sensor_id;sensor_type;location;lat;lon;timestamp;P1;durP1;ratioP1;P2;durP2;ratioP2
35223;SDS011;21367;51.930;8.112;2023-03-16T00:02:28;12.82;;;4.28;;
35223;SDS011;21367;51.930;8.112;2023-03-16T00:07:32;18.50;;;4.15;;
35223;SDS011;21367;51.930;8.112;2023-03-16T00:12:36;22.35;;;4.68;;
35223;SDS011;21367;51.930;8.112;2023-03-16T00:17:45;14.93;;;4.25;;
35223;SDS011;21367;51.930;8.112;2023-03-16T00:22:49;22.25;;;4.40;;
35223;SDS011;21367;51.930;8.112;2023-03-16T00:27:53;16.40;;;4.13;;
35223;SDS011;21367;51.930;8.112;2023-03-16T00:32:59;14.95;;;4.75;;
35223;SDS011;21367;51.930;8.112;2023-03-16T00:38:04;15.60;;;5.00;;
35223;SDS011;21367;51.930;8.112;2023-03-16T00:43:08;18.05;;;4.88;;
35223;SDS011;21367;51.930;8.112;2023-03-16T00:48:14;26.67;;;6.43;;
35223;SDS011;21367;51.930;8.112;2023-03-16T00:53:20;17.70;;;4.82;;
35223;SDS011;21367;51.930;8.112;2023-03-16T00:58:24;13.23;;;4.57;;
35223;SDS011;21367;51.930;8.112;2023-03-16T01:03:31;16.85;;;4.40;;
35223;SDS011;21367;51.930;8.112;2023-03-16T01:08:36;13.65;;;4.25;;
35223;SDS011;21367;51.930;8.112;2023-03-16T01:13:41;19.67;;;4.50;;
35223;SDS011;21367;51.930;8.112;2023-03-16T01:18:49;22.30;;;4.43;;
35223;SDS011;21367;51.930;8.112;2023-03-16T01:23:53;18.00;;;4.55;;
35223;SDS011;21367;51.930;8.112;2023-03-16T01:28:58;11.85;;;4.53;;
35223;SDS011;21367;51.930;8.112;2023-03-16T01:34:05;12.52;;;4.40;;
35223;SDS011;21367;51.930;8.112;2023-03-16T01:39:16;14.77;;;4.57;;
35223;SDS011;21367;51.930;8.112;2023-03-16T01:44:23;11.93;;;4.73;;
35223;SDS011;21367;51.930;8.112;2023-03-16T01:49:39;11.48;;;4.32;;
35223;SDS011;21367;51.930;8.112;2023-03-16T01:54:48;17.25;;;4.50;;
35223;SDS011;21367;51.930;8.112;2023-03-16T01:59:56;16.02;;;5.15;;
35223;SDS011;21367;51.930;8.112;2023-03-16T02:05:25;13.23;;;5.22;;
35223;SDS011;21367;51.930;8.112;2023-03-16T02:10:36;18.67;;;5.07;;
35223;SDS011;21367;51.930;8.112;2023-03-16T02:15:41;17.45;;;5.10;;
35223;SDS011;21367;51.930;8.112;2023-03-16T02:20:49;20.88;;;5.10;;
35223;SDS011;21367;51.930;8.112;2023-03-16T02:25:59;13.93;;;5.78;;
35223;SDS011;21367;51.930;8.112;2023-03-16T02:31:13;16.42;;;5.25;;
35223;SDS011;21367;51.930;8.112;2023-03-16T02:36:20;18.27;;;4.93;;
35223;SDS011;21367;51.930;8.112;2023-03-16T02:41:24;18.05;;;5.10;;
35223;SDS011;21367;51.930;8.112;2023-03-16T02:46:34;16.27;;;5.40;;
35223;SDS011;21367;51.930;8.112;2023-03-16T02:51:38;20.02;;;5.07;;
35223;SDS011;21367;51.930;8.112;2023-03-16T02:56:43;19.90;;;5.40;;
35223;SDS011;21367;51.930;8.112;2023-03-16T03:01:50;18.33;;;5.28;;
35223;SDS011;21367;51.930;8.112;2023-03-16T03:06:54;12.70;;;4.63;;
35223;SDS011;21367;51.930;8.112;2023-03-16T03:12:04;22.13;;;4.72;;
35223;SDS011;21367;51.930;8.112;2023-03-16T03:17:11;13.35;;;4.38;;
35223;SDS011;21367;51.930;8.112;2023-03-16T03:22:15;12.27;;;4.03;;
35223;SDS011;21367;51.930;8.112;2023-03-16T03:27:19;11.73;;;3.72;;
35223;SDS011;21367;51.930;8.112;2023-03-16T03:32:29;10.05;;;3.83;;
35223;SDS011;21367;51.930;8.112;2023-03-16T03:37:32;17.27;;;4.15;;
35223;SDS011;21367;51.930;8.112;2023-03-16T03:42:37;13.07;;;4.85;;
35223;SDS011;21367;51.930;8.112;2023-03-16T03:47:43;11.25;;;4.53;;
35223;SDS011;21367;51.930;8.112;2023-03-16T03:52:52;13.02;;;4.03;;
35223;SDS011;21367;51.930;8.112;2023-03-16T03:57:56;11.35;;;4.22;;
35223;SDS011;21367;51.930;8.112;2023-03-16T04:03:03;13.10;;;4.57;;
35223;SDS011;21367;51.930;8.112;2023-03-16T04:08:15;11.60;;;4.47;;
35223;SDS011;21367;51.930;8.112;2023-03-16T04:13:19;11.32;;;3.70;;
35223;SDS011;21367;51.930;8.112;2023-03-16T04:18:26;11.23;;;3.95;;
35223;SDS011;21367;51.930;8.112;2023-03-16T04:23:38;13.38;;;4.13;;
35223;SDS011;21367;51.930;8.112;2023-03-16T04:28:42;11.18;;;3.75;;
35223;SDS011;21367;51.930;8.112;2023-03-16T04:33:52;11.73;;;4.10;;
35223;SDS011;21367;51.930;8.112;2023-03-16T04:38:57;10.65;;;3.95;;
35223;SDS011;21367;51.930;8.112;2023-03-16T04:44:02;9.70;;;3.72;;
35223;SDS011;21367;51.930;8.112;2023-03-16T04:49:10;17.92;;;3.95;;
35223;SDS011;21367;51.930;8.112;2023-03-16T04:54:17;20.00;;;4.55;;
35223;SDS011;21367;51.930;8.112;2023-03-16T04:59:22;19.35;;;3.65;;
35223;SDS011;21367;51.930;8.112;2023-03-16T05:04:37;11.88;;;3.42;;
35223;SDS011;21367;51.930;8.112;2023-03-16T05:09:44;9.57;;;3.22;;
35223;SDS011;21367;51.930;8.112;2023-03-16T05:14:48;13.57;;;3.75;;
35223;SDS011;21367;51.930;8.112;2023-03-16T05:20:23;19.27;;;4.70;;
35223;SDS011;21367;51.930;8.112;2023-03-16T05:25:31;19.58;;;4.13;;
35223;SDS011;21367;51.930;8.112;2023-03-16T05:30:39;12.75;;;3.95;;
35223;SDS011;21367;51.930;8.112;2023-03-16T05:35:52;16.27;;;4.18;;
35223;SDS011;21367;51.930;8.112;2023-03-16T05:40:57;10.18;;;4.10;;
35223;SDS011;21367;51.930;8.112;2023-03-16T05:46:22;21.33;;;5.45;;
35223;SDS011;21367;51.930;8.112;2023-03-16T05:51:29;18.20;;;4.40;;
35223;SDS011;21367;51.930;8.112;2023-03-16T05:56:35;14.55;;;4.40;;
35223;SDS011;21367;51.930;8.112;2023-03-16T06:01:39;9.60;;;4.15;;
35223;SDS011;21367;51.930;8.112;2023-03-16T06:06:45;13.95;;;4.65;;
35223;SDS011;21367;51.930;8.112;2023-03-16T06:11:54;12.32;;;4.50;;
35223;SDS011;21367;51.930;8.112;2023-03-16T06:16:59;8.95;;;4.15;;
35223;SDS011;21367;51.930;8.112;2023-03-16T06:22:07;13.18;;;4.38;;
35223;SDS011;21367;51.930;8.112;2023-03-16T06:27:12;12.30;;;4.00;;
35223;SDS011;21367;51.930;8.112;2023-03-16T06:32:31;23.88;;;5.32;;
35223;SDS011;21367;51.930;8.112;2023-03-16T06:37:37;14.00;;;4.50;;
35223;SDS011;21367;51.930;8.112;2023-03-16T06:42:56;18.48;;;5.38;;
35223;SDS011;21367;51.930;8.112;2023-03-16T06:48:00;11.10;;;3.90;;
35223;SDS011;21367;51.930;8.112;2023-03-16T06:53:07;14.98;;;3.22;;
35223;SDS011;21367;51.930;8.112;2023-03-16T06:58:11;9.07;;;2.83;;
35223;SDS011;21367;51.930;8.112;2023-03-16T07:03:15;8.20;;;2.75;;
35223;SDS011;21367;51.930;8.112;2023-03-16T07:08:27;12.02;;;3.53;;
35223;SDS011;21367;51.930;8.112;2023-03-16T07:13:31;8.73;;;2.95;;
35223;SDS011;21367;51.930;8.112;2023-03-16T07:18:35;12.38;;;3.78;;
35223;SDS011;21367;51.930;8.112;2023-03-16T07:23:47;10.60;;;3.55;;
35223;SDS011;21367;51.930;8.112;2023-03-16T07:28:57;14.13;;;4.30;;
35223;SDS011;21367;51.930;8.112;2023-03-16T07:34:03;11.70;;;3.13;;
35223;SDS011;21367;51.930;8.112;2023-03-16T07:39:17;10.93;;;2.75;;
35223;SDS011;21367;51.930;8.112;2023-03-16T07:44:24;18.23;;;3.80;;
35223;SDS011;21367;51.930;8.112;2023-03-16T07:49:28;10.70;;;3.30;;
35223;SDS011;21367;51.930;8.112;2023-03-16T07:54:36;16.50;;;4.30;;
35223;SDS011;21367;51.930;8.112;2023-03-16T07:59:41;11.10;;;3.30;;
35223;SDS011;21367;51.930;8.112;2023-03-16T08:04:48;11.50;;;3.05;;
35223;SDS011;21367;51.930;8.112;2023-03-16T08:09:54;6.30;;;2.55;;
35223;SDS011;21367;51.930;8.112;2023-03-16T08:15:06;9.38;;;2.85;;
35223;SDS011;21367;51.930;8.112;2023-03-16T08:20:12;12.38;;;3.33;;
35223;SDS011;21367;51.930;8.112;2023-03-16T08:25:20;10.05;;;3.00;;
35223;SDS011;21367;51.930;8.112;2023-03-16T08:30:43;9.20;;;2.47;;
35223;SDS011;21367;51.930;8.112;2023-03-16T08:35:58;13.15;;;3.78;;
35223;SDS011;21367;51.930;8.112;2023-03-16T08:41:04;14.10;;;4.05;;
35223;SDS011;21367;51.930;8.112;2023-03-16T08:46:09;7.70;;;2.40;;
35223;SDS011;21367;51.930;8.112;2023-03-16T08:51:20;6.22;;;2.20;;
35223;SDS011;21367;51.930;8.112;2023-03-16T08:56:27;8.82;;;2.30;;
35223;SDS011;21367;51.930;8.112;2023-03-16T09:01:32;9.77;;;2.60;;
35223;SDS011;21367;51.930;8.112;2023-03-16T09:06:36;6.20;;;2.28;;
35223;SDS011;21367;51.930;8.112;2023-03-16T09:11:42;9.95;;;3.90;;
35223;SDS011;21367;51.930;8.112;2023-03-16T09:16:46;9.80;;;3.35;;
35223;SDS011;21367;51.930;8.112;2023-03-16T09:21:50;4.90;;;2.33;;
35223;SDS011;21367;51.930;8.112;2023-03-16T09:26:57;7.03;;;2.58;;
35223;SDS011;21367;51.930;8.112;2023-03-16T09:32:01;5.68;;;2.17;;
35223;SDS011;21367;51.930;8.112;2023-03-16T09:37:06;8.73;;;2.67;;
35223;SDS011;21367;51.930;8.112;2023-03-16T09:42:15;6.25;;;3.08;;
35223;SDS011;21367;51.930;8.112;2023-03-16T09:47:24;5.88;;;2.70;;
35223;SDS011;21367;51.930;8.112;2023-03-16T09:52:33;7.90;;;2.53;;
35223;SDS011;21367;51.930;8.112;2023-03-16T09:57:44;5.40;;;2.60;;
35223;SDS011;21367;51.930;8.112;2023-03-16T10:02:54;4.90;;;2.67;;
35223;SDS011;21367;51.930;8.112;2023-03-16T10:08:11;7.68;;;2.28;;
35223;SDS011;21367;51.930;8.112;2023-03-16T10:13:22;5.53;;;2.15;;
35223;SDS011;21367;51.930;8.112;2023-03-16T10:18:34;6.50;;;2.00;;
35223;SDS011;21367;51.930;8.112;2023-03-16T10:23:41;5.60;;;2.30;;
35223;SDS011;21367;51.930;8.112;2023-03-16T10:28:48;10.10;;;2.60;;
35223;SDS011;21367;51.930;8.112;2023-03-16T10:33:56;6.75;;;2.15;;
35223;SDS011;21367;51.930;8.112;2023-03-16T10:39:08;8.35;;;2.53;;
35223;SDS011;21367;51.930;8.112;2023-03-16T10:44:21;9.15;;;2.20;;
35223;SDS011;21367;51.930;8.112;2023-03-16T10:49:26;6.78;;;2.80;;
35223;SDS011;21367;51.930;8.112;2023-03-16T10:54:31;8.32;;;2.35;;
35223;SDS011;21367;51.930;8.112;2023-03-16T10:59:39;7.50;;;2.20;;
35223;SDS011;21367;51.930;8.112;2023-03-16T11:04:49;3.78;;;2.08;;
35223;SDS011;21367;51.930;8.112;2023-03-16T11:09:53;7.78;;;2.35;;
35223;SDS011;21367;51.930;8.112;2023-03-16T11:15:03;7.90;;;2.80;;
35223;SDS011;21367;51.930;8.112;2023-03-16T11:20:13;6.05;;;2.42;;
35223;SDS011;21367;51.930;8.112;2023-03-16T11:30:32;12.77;;;2.25;;
35223;SDS011;21367;51.930;8.112;2023-03-16T11:35:42;4.75;;;2.05;;
35223;SDS011;21367;51.930;8.112;2023-03-16T11:40:54;6.50;;;2.50;;
35223;SDS011;21367;51.930;8.112;2023-03-16T11:46:07;6.07;;;2.20;;
35223;SDS011;21367;51.930;8.112;2023-03-16T11:51:22;7.15;;;2.47;;
35223;SDS011;21367;51.930;8.112;2023-03-16T11:56:35;4.97;;;2.20;;
35223;SDS011;21367;51.930;8.112;2023-03-16T12:01:57;5.95;;;1.95;;
35223;SDS011;21367;51.930;8.112;2023-03-16T12:07:18;4.75;;;2.08;;
35223;SDS011;21367;51.930;8.112;2023-03-16T12:12:45;7.18;;;2.30;;
35223;SDS011;21367;51.930;8.112;2023-03-16T12:18:01;5.53;;;2.40;;
35223;SDS011;21367;51.930;8.112;2023-03-16T12:23:09;8.43;;;2.60;;
35223;SDS011;21367;51.930;8.112;2023-03-16T12:28:22;4.85;;;2.45;;
35223;SDS011;21367;51.930;8.112;2023-03-16T12:33:33;7.47;;;3.00;;
35223;SDS011;21367;51.930;8.112;2023-03-16T12:38:46;4.40;;;2.10;;
35223;SDS011;21367;51.930;8.112;2023-03-16T12:43:57;6.20;;;1.77;;
35223;SDS011;21367;51.930;8.112;2023-03-16T12:49:11;9.32;;;2.58;;
35223;SDS011;21367;51.930;8.112;2023-03-16T12:54:17;5.68;;;2.22;;
35223;SDS011;21367;51.930;8.112;2023-03-16T12:59:23;5.28;;;2.25;;
35223;SDS011;21367;51.930;8.112;2023-03-16T13:04:32;6.40;;;2.10;;
35223;SDS011;21367;51.930;8.112;2023-03-16T13:09:42;3.67;;;1.77;;
35223;SDS011;21367;51.930;8.112;2023-03-16T13:14:48;4.65;;;1.90;;
35223;SDS011;21367;51.930;8.112;2023-03-16T13:20:00;3.75;;;2.05;;
35223;SDS011;21367;51.930;8.112;2023-03-16T13:25:34;4.82;;;2.08;;
35223;SDS011;21367;51.930;8.112;2023-03-16T13:30:43;7.38;;;2.15;;
35223;SDS011;21367;51.930;8.112;2023-03-16T13:35:52;3.17;;;1.63;;
35223;SDS011;21367;51.930;8.112;2023-03-16T13:41:00;3.28;;;1.40;;
35223;SDS011;21367;51.930;8.112;2023-03-16T13:46:13;7.35;;;1.80;;
35223;SDS011;21367;51.930;8.112;2023-03-16T13:51:20;3.03;;;1.77;;
35223;SDS011;21367;51.930;8.112;2023-03-16T13:56:25;3.08;;;1.60;;
35223;SDS011;21367;51.930;8.112;2023-03-16T14:06:37;6.32;;;1.98;;
35223;SDS011;21367;51.930;8.112;2023-03-16T14:11:41;3.47;;;1.48;;
35223;SDS011;21367;51.930;8.112;2023-03-16T14:16:48;4.68;;;1.95;;
35223;SDS011;21367;51.930;8.112;2023-03-16T14:21:54;3.33;;;1.50;;
35223;SDS011;21367;51.930;8.112;2023-03-16T14:27:08;4.18;;;1.65;;
35223;SDS011;21367;51.930;8.112;2023-03-16T14:32:19;4.70;;;1.70;;
35223;SDS011;21367;51.930;8.112;2023-03-16T14:37:35;5.18;;;1.88;;
35223;SDS011;21367;51.930;8.112;2023-03-16T14:42:40;7.53;;;2.28;;
35223;SDS011;21367;51.930;8.112;2023-03-16T14:47:45;5.32;;;1.80;;
35223;SDS011;21367;51.930;8.112;2023-03-16T14:52:55;8.27;;;1.98;;
35223;SDS011;21367;51.930;8.112;2023-03-16T15:03:03;4.63;;;1.70;;
35223;SDS011;21367;51.930;8.112;2023-03-16T15:08:13;5.45;;;2.10;;
35223;SDS011;21367;51.930;8.112;2023-03-16T15:13:20;7.07;;;2.40;;
35223;SDS011;21367;51.930;8.112;2023-03-16T15:18:52;8.15;;;1.80;;
35223;SDS011;21367;51.930;8.112;2023-03-16T15:23:58;5.55;;;1.85;;
35223;SDS011;21367;51.930;8.112;2023-03-16T15:29:04;6.30;;;2.30;;
35223;SDS011;21367;51.930;8.112;2023-03-16T15:34:09;5.78;;;2.03;;
35223;SDS011;21367;51.930;8.112;2023-03-16T15:39:19;5.50;;;2.13;;
35223;SDS011;21367;51.930;8.112;2023-03-16T15:44:25;5.50;;;2.42;;
35223;SDS011;21367;51.930;8.112;2023-03-16T15:49:29;3.90;;;2.10;;
35223;SDS011;21367;51.930;8.112;2023-03-16T15:54:36;7.78;;;2.00;;
35223;SDS011;21367;51.930;8.112;2023-03-16T15:59:41;4.47;;;1.75;;
35223;SDS011;21367;51.930;8.112;2023-03-16T16:04:44;8.80;;;2.22;;
35223;SDS011;21367;51.930;8.112;2023-03-16T16:09:51;6.55;;;2.28;;
35223;SDS011;21367;51.930;8.112;2023-03-16T16:14:55;6.63;;;2.50;;
35223;SDS011;21367;51.930;8.112;2023-03-16T16:19:59;5.50;;;3.05;;
35223;SDS011;21367;51.930;8.112;2023-03-16T16:25:05;8.10;;;2.92;;
35223;SDS011;21367;51.930;8.112;2023-03-16T16:30:14;7.13;;;3.05;;
35223;SDS011;21367;51.930;8.112;2023-03-16T16:35:22;5.47;;;2.63;;
35223;SDS011;21367;51.930;8.112;2023-03-16T16:45:45;8.50;;;3.17;;
35223;SDS011;21367;51.930;8.112;2023-03-16T16:50:50;8.20;;;2.85;;
35223;SDS011;21367;51.930;8.112;2023-03-16T16:55:57;6.57;;;3.28;;
35223;SDS011;21367;51.930;8.112;2023-03-16T17:01:01;7.78;;;3.28;;
35223;SDS011;21367;51.930;8.112;2023-03-16T17:06:05;6.15;;;2.92;;
35223;SDS011;21367;51.930;8.112;2023-03-16T17:16:21;8.10;;;3.00;;
35223;SDS011;21367;51.930;8.112;2023-03-16T17:21:26;6.60;;;2.97;;
35223;SDS011;21367;51.930;8.112;2023-03-16T17:26:35;9.25;;;3.53;;
35223;SDS011;21367;51.930;8.112;2023-03-16T17:31:44;10.80;;;3.60;;
35223;SDS011;21367;51.930;8.112;2023-03-16T17:36:48;8.13;;;3.97;;
35223;SDS011;21367;51.930;8.112;2023-03-16T17:41:56;15.38;;;5.22;;
35223;SDS011;21367;51.930;8.112;2023-03-16T17:47:01;9.95;;;4.38;;
35223;SDS011;21367;51.930;8.112;2023-03-16T17:52:10;16.30;;;5.00;;
35223;SDS011;21367;51.930;8.112;2023-03-16T17:57:21;15.73;;;4.63;;
35223;SDS011;21367;51.930;8.112;2023-03-16T18:02:31;17.77;;;6.32;;
35223;SDS011;21367;51.930;8.112;2023-03-16T18:07:41;16.48;;;5.38;;
35223;SDS011;21367;51.930;8.112;2023-03-16T18:12:53;12.13;;;4.70;;
35223;SDS011;21367;51.930;8.112;2023-03-16T18:18:01;9.00;;;5.05;;
35223;SDS011;21367;51.930;8.112;2023-03-16T18:23:09;10.63;;;4.43;;
35223;SDS011;21367;51.930;8.112;2023-03-16T18:28:20;15.23;;;4.63;;
35223;SDS011;21367;51.930;8.112;2023-03-16T18:33:24;9.00;;;4.90;;
35223;SDS011;21367;51.930;8.112;2023-03-16T18:38:32;9.18;;;5.25;;
35223;SDS011;21367;51.930;8.112;2023-03-16T18:43:39;14.10;;;5.78;;
35223;SDS011;21367;51.930;8.112;2023-03-16T18:48:43;9.85;;;4.82;;
35223;SDS011;21367;51.930;8.112;2023-03-16T18:53:47;11.00;;;5.28;;
35223;SDS011;21367;51.930;8.112;2023-03-16T18:58:55;14.32;;;5.93;;
35223;SDS011;21367;51.930;8.112;2023-03-16T19:03:59;11.00;;;6.07;;
35223;SDS011;21367;51.930;8.112;2023-03-16T19:09:05;14.27;;;5.97;;
35223;SDS011;21367;51.930;8.112;2023-03-16T19:14:17;18.42;;;6.35;;
35223;SDS011;21367;51.930;8.112;2023-03-16T19:19:24;17.13;;;5.97;;
35223;SDS011;21367;51.930;8.112;2023-03-16T19:24:28;14.93;;;6.22;;
35223;SDS011;21367;51.930;8.112;2023-03-16T19:29:39;12.18;;;6.15;;
35223;SDS011;21367;51.930;8.112;2023-03-16T19:39:46;13.18;;;6.20;;
35223;SDS011;21367;51.930;8.112;2023-03-16T19:44:53;10.90;;;6.10;;
35223;SDS011;21367;51.930;8.112;2023-03-16T19:49:56;13.27;;;7.05;;
35223;SDS011;21367;51.930;8.112;2023-03-16T19:55:01;16.95;;;7.65;;
35223;SDS011;21367;51.930;8.112;2023-03-16T20:00:12;16.10;;;7.72;;
35223;SDS011;21367;51.930;8.112;2023-03-16T20:05:20;18.42;;;7.72;;
35223;SDS011;21367;51.930;8.112;2023-03-16T20:10:26;17.55;;;8.52;;
35223;SDS011;21367;51.930;8.112;2023-03-16T20:20:38;20.03;;;10.33;;
35223;SDS011;21367;51.930;8.112;2023-03-16T20:25:43;22.77;;;11.98;;
35223;SDS011;21367;51.930;8.112;2023-03-16T20:30:50;25.13;;;10.98;;
35223;SDS011;21367;51.930;8.112;2023-03-16T20:35:54;23.17;;;9.50;;
35223;SDS011;21367;51.930;8.112;2023-03-16T20:40:58;28.13;;;11.48;;
35223;SDS011;21367;51.930;8.112;2023-03-16T20:46:13;24.63;;;10.68;;
35223;SDS011;21367;51.930;8.112;2023-03-16T20:51:20;16.95;;;8.00;;
35223;SDS011;21367;51.930;8.112;2023-03-16T20:56:24;17.23;;;7.15;;
35223;SDS011;21367;51.930;8.112;2023-03-16T21:01:30;13.60;;;6.55;;
35223;SDS011;21367;51.930;8.112;2023-03-16T21:11:38;16.98;;;7.10;;
35223;SDS011;21367;51.930;8.112;2023-03-16T21:16:45;11.57;;;6.10;;
35223;SDS011;21367;51.930;8.112;2023-03-16T21:21:48;16.02;;;7.57;;
35223;SDS011;21367;51.930;8.112;2023-03-16T21:26:53;12.80;;;6.85;;
35223;SDS011;21367;51.930;8.112;2023-03-16T21:31:59;14.48;;;7.25;;
35223;SDS011;21367;51.930;8.112;2023-03-16T21:37:04;15.35;;;6.80;;
35223;SDS011;21367;51.930;8.112;2023-03-16T21:42:15;16.30;;;6.85;;
35223;SDS011;21367;51.930;8.112;2023-03-16T21:47:24;16.52;;;7.50;;
35223;SDS011;21367;51.930;8.112;2023-03-16T21:52:30;17.98;;;8.93;;
35223;SDS011;21367;51.930;8.112;2023-03-16T21:57:34;19.38;;;10.75;;
35223;SDS011;21367;51.930;8.112;2023-03-16T22:02:41;19.02;;;9.02;;
35223;SDS011;21367;51.930;8.112;2023-03-16T22:12:48;24.13;;;10.20;;
35223;SDS011;21367;51.930;8.112;2023-03-16T22:17:55;30.50;;;13.30;;
35223;SDS011;21367;51.930;8.112;2023-03-16T22:22:59;23.27;;;12.00;;
35223;SDS011;21367;51.930;8.112;2023-03-16T22:28:07;18.92;;;8.07;;
35223;SDS011;21367;51.930;8.112;2023-03-16T22:33:18;21.40;;;7.53;;
35223;SDS011;21367;51.930;8.112;2023-03-16T22:38:24;12.35;;;6.78;;
35223;SDS011;21367;51.930;8.112;2023-03-16T22:43:29;13.13;;;6.63;;
35223;SDS011;21367;51.930;8.112;2023-03-16T22:48:37;14.77;;;6.97;;
35223;SDS011;21367;51.930;8.112;2023-03-16T22:58:46;14.05;;;5.60;;
35223;SDS011;21367;51.930;8.112;2023-03-16T23:03:56;11.23;;;5.50;;
35223;SDS011;21367;51.930;8.112;2023-03-16T23:14:04;12.63;;;5.68;;
35223;SDS011;21367;51.930;8.112;2023-03-16T23:19:26;11.98;;;5.47;;
35223;SDS011;21367;51.930;8.112;2023-03-16T23:24:32;14.50;;;5.78;;
35223;SDS011;21367;51.930;8.112;2023-03-16T23:29:36;8.63;;;5.18;;
35223;SDS011;21367;51.930;8.112;2023-03-16T23:34:43;10.35;;;5.18;;
35223;SDS011;21367;51.930;8.112;2023-03-16T23:39:46;8.75;;;5.05;;
35223;SDS011;21367;51.930;8.112;2023-03-16T23:44:50;11.05;;;5.47;;
35223;SDS011;21367;51.930;8.112;2023-03-16T23:49:56;8.55;;;4.68;;
35223;SDS011;21367;51.930;8.112;2023-03-16T23:55:00;10.90;;;5.40;;
